createdAt,value
2017-05-16T00:02:01.614Z,15.10
2017-05-16T00:04:31.242Z,15.00
2017-05-16T00:07:00.138Z,15.00
2017-05-16T00:09:29.066Z,15.00
2017-05-16T00:11:57.971Z,15.00
2017-05-16T00:14:26.865Z,15.00
2017-05-16T00:16:55.926Z,15.00
2017-05-16T00:19:24.818Z,15.00
2017-05-16T00:21:53.733Z,15.00
2017-05-16T00:24:22.658Z,15.00
2017-05-16T00:26:51.559Z,15.00
2017-05-16T00:29:20.477Z,14.90
2017-05-16T00:31:49.382Z,14.90
2017-05-16T00:34:18.279Z,14.80
2017-05-16T00:36:47.322Z,14.80
2017-05-16T00:39:16.235Z,14.80
2017-05-16T00:41:45.143Z,14.70
2017-05-16T00:44:14.817Z,14.70
2017-05-16T00:46:43.725Z,14.70
2017-05-16T00:49:12.628Z,14.70
2017-05-16T00:51:41.574Z,14.70
2017-05-16T00:54:10.482Z,14.60
2017-05-16T00:56:39.406Z,14.60
2017-05-16T00:59:08.483Z,14.60
2017-05-16T01:01:37.421Z,14.60
2017-05-16T01:04:06.331Z,14.60
2017-05-16T01:06:35.997Z,14.60
2017-05-16T01:09:04.894Z,14.60
2017-05-16T01:11:33.788Z,14.60
2017-05-16T01:14:02.849Z,14.60
2017-05-16T01:16:31.733Z,14.60
2017-05-16T01:19:00.643Z,14.60
2017-05-16T01:21:29.616Z,14.60
2017-05-16T01:23:59.252Z,14.60
2017-05-16T01:26:28.151Z,14.60
2017-05-16T01:28:57.076Z,14.50
2017-05-16T01:31:25.978Z,14.50
2017-05-16T01:33:54.869Z,14.50
2017-05-16T01:36:23.802Z,14.40
2017-05-16T01:38:53.441Z,14.40
2017-05-16T01:41:22.348Z,14.40
2017-05-16T01:43:51.398Z,14.30
2017-05-16T01:46:21.047Z,14.30
2017-05-16T01:48:49.939Z,14.30
2017-05-16T01:51:18.875Z,14.30
2017-05-16T01:53:47.769Z,14.20
2017-05-16T01:56:16.681Z,14.30
2017-05-16T01:58:46.822Z,14.20
2017-05-16T02:01:16.464Z,14.20
2017-05-16T02:03:45.365Z,14.30
2017-05-16T02:06:14.409Z,14.20
2017-05-16T02:08:43.301Z,14.10
2017-05-16T02:11:12.214Z,14.10
2017-05-16T02:13:41.858Z,14.10
2017-05-16T02:16:10.759Z,14.10
2017-05-16T02:18:39.694Z,14.00
2017-05-16T02:21:08.590Z,13.90
2017-05-16T02:23:37.485Z,13.90
2017-05-16T02:26:06.534Z,13.90
2017-05-16T02:28:35.423Z,13.80
2017-05-16T02:31:04.314Z,13.80
2017-05-16T02:33:33.238Z,13.70
2017-05-16T02:36:02.186Z,13.70
2017-05-16T02:38:31.826Z,13.60
2017-05-16T02:41:00.741Z,13.60
2017-05-16T02:43:29.809Z,13.60
2017-05-16T02:45:58.713Z,13.60
2017-05-16T02:48:27.602Z,13.60
2017-05-16T02:50:56.578Z,13.60
2017-05-16T02:53:25.481Z,13.60
2017-05-16T02:55:55.992Z,13.60
2017-05-16T02:58:26.227Z,13.50
2017-05-16T03:00:55.858Z,13.50
2017-05-16T03:03:24.754Z,13.50
2017-05-16T03:05:53.785Z,13.50
2017-05-16T03:08:22.691Z,13.50
2017-05-16T03:10:51.601Z,13.40
2017-05-16T03:13:20.645Z,13.40
2017-05-16T03:15:49.557Z,13.40
2017-05-16T03:18:18.453Z,13.40
2017-05-16T03:20:47.406Z,13.40
2017-05-16T03:23:16.336Z,13.40
2017-05-16T03:25:45.222Z,13.40
2017-05-16T03:28:14.164Z,13.40
2017-05-16T03:30:43.129Z,13.40
2017-05-16T03:33:12.024Z,13.40
2017-05-16T03:35:41.077Z,13.30
2017-05-16T03:38:10.712Z,13.30
2017-05-16T03:40:39.605Z,13.30
2017-05-16T03:43:08.658Z,13.30
2017-05-16T03:45:37.563Z,13.30
2017-05-16T03:48:06.461Z,13.30
2017-05-16T03:50:35.406Z,13.30
2017-05-16T03:53:04.299Z,13.30
2017-05-16T03:55:33.244Z,13.20
2017-05-16T03:58:02.167Z,13.20
2017-05-16T04:00:31.793Z,13.20
2017-05-16T04:03:00.686Z,13.20
2017-05-16T04:05:29.643Z,13.20
2017-05-16T04:07:58.541Z,13.20
2017-05-16T04:10:28.174Z,13.10
2017-05-16T04:12:57.108Z,13.10
2017-05-16T04:15:26.010Z,13.20
2017-05-16T04:17:54.898Z,13.20
2017-05-16T04:20:23.814Z,13.20
2017-05-16T04:22:52.706Z,13.20
2017-05-16T04:25:21.758Z,13.30
2017-05-16T04:27:50.676Z,13.30
2017-05-16T04:30:19.577Z,13.20
2017-05-16T04:32:48.531Z,13.30
2017-05-16T04:35:17.446Z,13.30
2017-05-16T04:37:46.355Z,13.40
2017-05-16T04:40:15.292Z,13.40
2017-05-16T04:42:44.193Z,13.40
2017-05-16T04:45:13.153Z,13.40
2017-05-16T04:47:42.914Z,13.50
2017-05-16T04:50:12.544Z,13.40
2017-05-16T04:52:41.433Z,13.40
2017-05-16T04:55:10.384Z,13.40
2017-05-16T04:57:39.287Z,13.50
2017-05-16T05:00:08.175Z,13.50
2017-05-16T05:02:44.269Z,13.50
2017-05-16T05:05:13.908Z,13.50
2017-05-16T05:07:42.826Z,13.50
2017-05-16T05:10:11.774Z,13.60
2017-05-16T05:12:41.397Z,13.60
2017-05-16T05:15:10.303Z,13.70
2017-05-16T05:17:39.243Z,13.70
2017-05-16T05:20:08.131Z,13.80
2017-05-16T05:22:37.009Z,13.80
2017-05-16T05:25:13.197Z,13.80
2017-05-16T05:27:49.217Z,13.90
2017-05-16T05:30:18.225Z,14.00
2017-05-16T05:32:47.126Z,14.00
2017-05-16T05:35:16.024Z,14.00
2017-05-16T05:37:44.978Z,14.10
2017-05-16T05:40:13.911Z,14.10
2017-05-16T05:42:43.767Z,14.20
2017-05-16T05:45:11.906Z,14.20
2017-05-16T05:47:40.819Z,14.30
2017-05-16T05:50:09.790Z,14.30
2017-05-16T05:52:38.688Z,14.30
2017-05-16T05:55:08.346Z,14.30
2017-05-16T05:57:39.142Z,14.40
2017-05-16T06:00:08.058Z,14.50
2017-05-16T06:02:36.972Z,14.50
2017-05-16T06:05:13.759Z,14.50
2017-05-16T06:07:42.749Z,14.60
2017-05-16T06:10:11.667Z,14.70
2017-05-16T06:12:40.610Z,14.90
2017-05-16T06:15:09.548Z,15.00
2017-05-16T06:17:38.470Z,15.00
2017-05-16T06:20:07.523Z,15.10
2017-05-16T06:22:36.464Z,15.20
2017-05-16T06:25:05.369Z,15.30
2017-05-16T06:27:34.303Z,15.30
2017-05-16T06:30:03.927Z,15.40
2017-05-16T06:32:33.560Z,15.40
2017-05-16T06:35:04.265Z,15.50
2017-05-16T06:37:33.915Z,15.60
2017-05-16T06:40:02.818Z,15.70
2017-05-16T06:42:31.758Z,15.80
2017-05-16T06:45:01.398Z,15.80
2017-05-16T06:47:30.307Z,15.90
2017-05-16T06:49:59.234Z,16.10
2017-05-16T06:52:28.122Z,16.20
2017-05-16T06:54:57.034Z,16.20
2017-05-16T06:57:27.693Z,16.30
2017-05-16T06:59:57.344Z,16.30
2017-05-16T07:02:26.255Z,16.40
2017-05-16T07:04:55.186Z,16.50
2017-05-16T07:07:24.068Z,16.60
2017-05-16T07:09:52.960Z,16.80
2017-05-16T07:12:22.005Z,16.90
2017-05-16T07:14:50.934Z,17.00
2017-05-16T07:17:19.824Z,17.10
2017-05-16T07:19:48.726Z,17.20
2017-05-16T07:22:17.662Z,17.20
2017-05-16T07:24:46.566Z,17.30
2017-05-16T07:27:16.187Z,17.40
2017-05-16T07:29:45.957Z,17.50
2017-05-16T07:32:14.843Z,17.70
2017-05-16T07:34:43.729Z,17.80
2017-05-16T07:37:12.649Z,17.80
2017-05-16T07:39:41.537Z,17.80
2017-05-16T07:42:10.430Z,17.90
2017-05-16T07:44:39.359Z,18.00
2017-05-16T07:47:08.242Z,18.10
2017-05-16T07:49:37.870Z,18.30
2017-05-16T07:52:07.618Z,18.40
2017-05-16T07:54:36.517Z,18.50
2017-05-16T07:57:05.423Z,18.70
2017-05-16T07:59:34.337Z,18.80
2017-05-16T08:02:03.224Z,18.80
2017-05-16T08:04:32.146Z,18.90
2017-05-16T08:07:01.777Z,19.00
2017-05-16T08:09:38.179Z,19.20
2017-05-16T08:12:07.149Z,19.30
2017-05-16T08:14:36.080Z,19.30
2017-05-16T08:17:04.997Z,19.40
2017-05-16T08:19:33.893Z,19.50
2017-05-16T08:22:02.784Z,19.50
2017-05-16T08:24:31.712Z,19.60
2017-05-16T08:27:00.605Z,19.70
2017-05-16T08:29:29.493Z,19.70
2017-05-16T08:31:58.530Z,19.80
2017-05-16T08:34:27.429Z,19.80
2017-05-16T08:36:56.345Z,19.90
2017-05-16T08:39:25.250Z,20.00
2017-05-16T08:41:55.505Z,20.00
2017-05-16T08:44:24.417Z,20.10
2017-05-16T08:46:53.300Z,20.30
2017-05-16T08:49:22.209Z,20.40
2017-05-16T08:51:51.105Z,20.40
2017-05-16T08:54:20.046Z,20.50
2017-05-16T08:57:00.453Z,20.60
2017-05-16T08:59:29.501Z,20.80
2017-05-16T09:01:58.446Z,20.90
2017-05-16T09:04:27.327Z,20.80
2017-05-16T09:06:56.216Z,20.80
2017-05-16T09:09:25.162Z,20.90
2017-05-16T09:11:54.082Z,21.00
2017-05-16T09:14:22.972Z,21.10
2017-05-16T09:16:52.008Z,21.20
2017-05-16T09:19:20.915Z,21.30
2017-05-16T09:21:50.517Z,21.40
2017-05-16T09:24:21.022Z,21.60
2017-05-16T09:26:49.902Z,21.70
2017-05-16T09:29:18.777Z,21.90
2017-05-16T09:31:47.661Z,22.10
2017-05-16T09:34:16.529Z,22.20
2017-05-16T09:36:46.187Z,22.40
2017-05-16T09:39:15.050Z,22.70
2017-05-16T09:41:52.677Z,22.90
2017-05-16T09:44:23.341Z,23.00
2017-05-16T09:46:53.481Z,23.10
2017-05-16T09:49:23.094Z,23.20
2017-05-16T09:51:52.704Z,23.30
2017-05-16T09:54:22.355Z,23.10
2017-05-16T09:56:51.380Z,23.20
2017-05-16T09:59:20.317Z,23.30
2017-05-16T10:01:49.954Z,23.40
2017-05-16T10:04:18.817Z,23.50
2017-05-16T10:06:48.464Z,23.50
2017-05-16T10:09:17.342Z,23.50
2017-05-16T10:11:46.209Z,23.50
2017-05-16T10:14:16.721Z,23.40
2017-05-16T10:16:45.593Z,23.40
2017-05-16T10:19:14.456Z,23.50
2017-05-16T10:21:43.369Z,23.50
2017-05-16T10:24:12.242Z,23.40
2017-05-16T10:26:41.828Z,23.40
2017-05-16T10:29:11.476Z,23.50
2017-05-16T10:31:40.357Z,23.50
2017-05-16T10:34:09.226Z,23.50
2017-05-16T10:36:39.843Z,23.60
2017-05-16T10:39:08.718Z,23.60
2017-05-16T10:41:37.617Z,23.70
2017-05-16T10:44:06.501Z,23.70
2017-05-16T10:46:35.413Z,23.60
2017-05-16T10:49:04.321Z,23.60
2017-05-16T10:51:33.217Z,23.70
2017-05-16T10:54:02.090Z,23.70
2017-05-16T10:56:33.058Z,23.80
2017-05-16T10:59:01.923Z,23.80
2017-05-16T11:01:30.797Z,23.70
2017-05-16T11:03:59.742Z,23.90
2017-05-16T11:06:28.622Z,24.00
2017-05-16T11:08:57.486Z,24.30
2017-05-16T11:11:26.389Z,24.50
2017-05-16T11:13:55.258Z,24.60
2017-05-16T11:16:24.121Z,24.80
2017-05-16T11:18:53.774Z,24.80
2017-05-16T11:21:22.642Z,24.90
2017-05-16T11:23:52.249Z,25.00
2017-05-16T11:26:23.679Z,25.10
2017-05-16T11:28:52.550Z,25.30
2017-05-16T11:31:21.425Z,25.50
2017-05-16T11:33:51.689Z,25.60
2017-05-16T11:36:20.556Z,25.70
2017-05-16T11:38:49.430Z,25.90
2017-05-16T11:41:18.330Z,25.90
2017-05-16T11:43:47.257Z,26.00
2017-05-16T11:46:16.121Z,26.10
2017-05-16T11:48:45.035Z,26.20
2017-05-16T11:51:13.902Z,26.10
2017-05-16T11:53:42.773Z,26.10
2017-05-16T11:56:26.685Z,26.10
2017-05-16T11:58:55.547Z,25.90
2017-05-16T12:01:24.419Z,25.80
2017-05-16T12:03:53.310Z,25.40
2017-05-16T12:06:22.186Z,25.30
2017-05-16T12:08:51.065Z,25.30
2017-05-16T12:11:19.971Z,25.20
2017-05-16T12:13:50.480Z,25.40
2017-05-16T12:16:19.357Z,25.70
2017-05-16T12:18:48.225Z,25.90
2017-05-16T12:21:17.133Z,26.10
2017-05-16T12:23:46.754Z,26.10
2017-05-16T12:26:15.620Z,26.50
2017-05-16T12:28:51.537Z,26.70
2017-05-16T12:31:21.297Z,26.60
2017-05-16T12:33:50.181Z,26.60
2017-05-16T12:36:19.067Z,26.80
2017-05-16T12:38:47.925Z,26.70
2017-05-16T12:41:16.814Z,26.80
2017-05-16T12:43:45.677Z,26.70
2017-05-16T12:46:14.700Z,26.80
2017-05-16T12:48:43.561Z,26.60
2017-05-16T12:51:12.470Z,26.70
2017-05-16T12:53:41.341Z,26.70
2017-05-16T12:56:10.205Z,26.90
2017-05-16T12:58:53.888Z,26.90
2017-05-16T13:01:22.766Z,27.20
2017-05-16T13:03:51.747Z,27.30
2017-05-16T13:06:20.565Z,27.40
2017-05-16T13:08:49.459Z,27.50
2017-05-16T13:11:18.331Z,27.60
2017-05-16T13:13:47.230Z,27.90
2017-05-16T13:16:16.098Z,27.90
2017-05-16T13:18:45.717Z,27.80
2017-05-16T13:21:17.083Z,27.60
2017-05-16T13:23:45.933Z,27.60
2017-05-16T13:26:14.810Z,27.60
2017-05-16T13:28:43.715Z,27.70
2017-05-16T13:31:12.592Z,27.90
2017-05-16T13:33:41.462Z,28.10
2017-05-16T13:36:10.361Z,28.20
2017-05-16T13:38:40.409Z,28.30
2017-05-16T13:41:09.274Z,28.50
2017-05-16T13:43:45.273Z,28.80
2017-05-16T13:46:14.137Z,29.10
2017-05-16T13:48:43.013Z,29.30
2017-05-16T13:51:11.945Z,29.50
2017-05-16T13:53:48.037Z,29.50
2017-05-16T13:56:17.641Z,29.50
2017-05-16T13:58:46.522Z,29.50
2017-05-16T14:01:30.533Z,29.30
2017-05-16T14:03:59.386Z,29.40
2017-05-16T14:06:28.997Z,29.40
2017-05-16T14:09:00.515Z,29.50
2017-05-16T14:11:29.402Z,29.40
2017-05-16T14:13:58.261Z,29.20
2017-05-16T14:16:27.170Z,29.10
2017-05-16T14:18:56.034Z,29.20
2017-05-16T14:21:25.636Z,29.30
2017-05-16T14:24:02.624Z,29.00
2017-05-16T14:26:31.537Z,29.20
2017-05-16T14:29:00.400Z,29.30
2017-05-16T14:31:30.041Z,29.40
2017-05-16T14:33:58.910Z,29.60
2017-05-16T14:36:28.504Z,29.60
2017-05-16T14:38:58.315Z,29.70
2017-05-16T14:41:27.167Z,29.60
2017-05-16T14:43:56.065Z,29.70
2017-05-16T14:46:24.926Z,29.70
2017-05-16T14:48:53.785Z,29.70
2017-05-16T14:51:22.674Z,29.80
2017-05-16T14:53:51.524Z,29.80
2017-05-16T14:56:20.385Z,29.90
2017-05-16T14:58:57.157Z,29.70
2017-05-16T15:01:26.865Z,29.70
2017-05-16T15:03:55.785Z,29.70
2017-05-16T15:06:24.695Z,29.90
2017-05-16T15:08:53.573Z,29.90
2017-05-16T15:11:23.168Z,30.10
2017-05-16T15:14:00.049Z,30.20
2017-05-16T15:16:29.761Z,29.90
2017-05-16T15:18:58.677Z,30.00
2017-05-16T15:21:27.541Z,29.90
2017-05-16T15:23:56.433Z,29.90
2017-05-16T15:26:25.312Z,29.90
2017-05-16T15:28:54.177Z,30.00
2017-05-16T15:31:23.101Z,29.90
2017-05-16T15:33:51.962Z,29.90
2017-05-16T15:36:20.840Z,29.60
2017-05-16T15:38:57.056Z,29.70
2017-05-16T15:41:25.923Z,29.70
2017-05-16T15:43:58.534Z,29.80
2017-05-16T15:46:27.401Z,29.80
2017-05-16T15:48:56.277Z,29.90
2017-05-16T15:51:25.165Z,29.90
2017-05-16T15:53:54.055Z,29.90
2017-05-16T15:56:23.642Z,30.00
2017-05-16T15:58:53.397Z,30.10
2017-05-16T16:01:22.259Z,30.10
2017-05-16T16:03:51.125Z,30.10
2017-05-16T16:06:20.023Z,29.90
2017-05-16T16:08:48.920Z,29.90
2017-05-16T16:11:17.813Z,29.90
2017-05-16T16:13:46.701Z,30.00
2017-05-16T16:16:15.569Z,30.10
2017-05-16T16:18:44.504Z,30.20
2017-05-16T16:21:14.122Z,30.20
2017-05-16T16:23:43.726Z,30.20
2017-05-16T16:26:12.629Z,29.90
2017-05-16T16:28:42.242Z,30.00
2017-05-16T16:31:11.854Z,29.90
2017-05-16T16:33:41.493Z,29.70
2017-05-16T16:36:10.354Z,29.70
2017-05-16T16:38:39.948Z,29.70
2017-05-16T16:41:16.847Z,29.70
2017-05-16T16:43:46.537Z,29.80
2017-05-16T16:46:15.450Z,29.60
2017-05-16T16:48:44.344Z,29.60
2017-05-16T16:51:13.969Z,29.50
2017-05-16T16:53:43.570Z,29.50
2017-05-16T16:56:34.803Z,29.40
2017-05-16T16:59:11.111Z,29.50
2017-05-16T17:01:40.089Z,29.60
2017-05-16T17:04:08.959Z,29.40
2017-05-16T17:06:37.828Z,29.30
2017-05-16T17:09:07.476Z,29.30
2017-05-16T17:11:36.351Z,29.20
2017-05-16T17:14:05.218Z,29.20
2017-05-16T17:16:42.017Z,28.90
2017-05-16T17:19:11.707Z,29.00
2017-05-16T17:21:40.573Z,29.00
2017-05-16T17:24:09.503Z,28.90
2017-05-16T17:26:39.109Z,28.90
2017-05-16T17:29:08.740Z,28.60
2017-05-16T17:31:45.178Z,28.40
2017-05-16T17:34:21.412Z,28.20
2017-05-16T17:36:51.147Z,28.10
2017-05-16T17:39:20.045Z,27.90
2017-05-16T17:41:48.925Z,27.70
2017-05-16T17:44:17.797Z,27.50
2017-05-16T17:46:53.883Z,27.40
2017-05-16T17:49:22.761Z,27.20
2017-05-16T17:51:51.628Z,27.10
2017-05-16T17:54:21.804Z,26.90
2017-05-16T17:56:58.702Z,26.80
2017-05-16T17:59:28.825Z,26.80
2017-05-16T18:01:57.692Z,26.70
2017-05-16T18:04:26.569Z,26.70
2017-05-16T18:07:03.103Z,26.70
2017-05-16T18:09:32.112Z,26.70
2017-05-16T18:12:01.062Z,26.60
2017-05-16T18:14:29.932Z,26.50
2017-05-16T18:16:58.809Z,26.40
2017-05-16T18:19:27.713Z,26.40
2017-05-16T18:21:56.606Z,26.30
2017-05-16T18:24:25.486Z,26.30
2017-05-16T18:26:54.518Z,26.10
2017-05-16T18:29:23.390Z,26.00
2017-05-16T18:31:52.287Z,25.90
2017-05-16T18:34:21.170Z,25.80
2017-05-16T18:36:50.050Z,25.70
2017-05-16T18:39:18.925Z,25.60
2017-05-16T18:41:55.413Z,25.40
2017-05-16T18:44:24.371Z,25.30
2017-05-16T18:46:53.997Z,25.10
2017-05-16T18:49:22.893Z,24.90
2017-05-16T18:51:51.790Z,24.80
2017-05-16T18:54:20.681Z,24.70
2017-05-16T18:57:00.844Z,24.60
2017-05-16T18:59:29.885Z,24.60
2017-05-16T19:01:58.803Z,24.50
2017-05-16T19:04:27.677Z,24.50
2017-05-16T19:06:56.561Z,24.40
2017-05-16T19:09:25.438Z,24.30
2017-05-16T19:12:06.049Z,24.20
2017-05-16T19:14:35.669Z,24.10
2017-05-16T19:17:05.334Z,23.90
2017-05-16T19:19:34.246Z,23.90
2017-05-16T19:22:03.113Z,23.80
2017-05-16T19:24:32.039Z,23.80
2017-05-16T19:27:00.921Z,23.80
2017-05-16T19:29:29.804Z,23.80
2017-05-16T19:32:06.050Z,23.70
2017-05-16T19:34:42.857Z,23.70
2017-05-16T19:37:11.746Z,23.80
2017-05-16T19:39:40.679Z,23.70
2017-05-16T19:42:09.544Z,23.60
2017-05-16T19:44:38.430Z,23.60
2017-05-16T19:47:14.529Z,23.50
2017-05-16T19:49:50.859Z,23.40
2017-05-16T19:52:19.853Z,23.30
2017-05-16T19:54:48.733Z,23.30
2017-05-16T19:57:17.638Z,23.20
2017-05-16T19:59:46.538Z,23.10
2017-05-16T20:02:15.496Z,23.00
2017-05-16T20:04:44.381Z,22.90
2017-05-16T20:07:13.281Z,22.80
2017-05-16T20:09:42.168Z,22.80
2017-05-16T20:12:11.098Z,22.60
2017-05-16T20:14:39.984Z,22.50
2017-05-16T20:17:08.894Z,22.50
2017-05-16T20:19:37.795Z,22.40
2017-05-16T20:22:06.749Z,22.30
2017-05-16T20:24:35.641Z,22.30
2017-05-16T20:27:04.508Z,22.10
2017-05-16T20:29:33.433Z,22.10
2017-05-16T20:32:02.330Z,22.00
2017-05-16T20:34:31.194Z,22.00
2017-05-16T20:37:00.148Z,21.90
2017-05-16T20:39:29.046Z,21.90
2017-05-16T20:41:57.203Z,21.80
2017-05-16T20:44:33.275Z,21.80
2017-05-16T20:47:02.304Z,21.70
2017-05-16T20:49:31.933Z,21.70
2017-05-16T20:52:00.894Z,21.60
2017-05-16T20:54:29.810Z,21.50
2017-05-16T20:57:00.308Z,21.50
2017-05-16T20:59:32.540Z,21.40
2017-05-16T21:02:02.159Z,21.40
2017-05-16T21:04:31.093Z,21.40
2017-05-16T21:07:00.061Z,21.30
2017-05-16T21:09:28.955Z,21.30
2017-05-16T21:11:57.862Z,21.30
2017-05-16T21:14:26.793Z,21.20
2017-05-16T21:16:55.690Z,21.10
2017-05-16T21:19:25.326Z,21.10
2017-05-16T21:22:01.993Z,21.10
2017-05-16T21:24:30.985Z,21.00
2017-05-16T21:26:59.910Z,20.90
2017-05-16T21:29:28.829Z,20.90
2017-05-16T21:31:57.726Z,20.90
2017-05-16T21:34:26.633Z,20.80
2017-05-16T21:36:55.601Z,20.80
2017-05-16T21:39:24.512Z,20.80
2017-05-16T21:41:53.413Z,20.80
2017-05-16T21:44:22.357Z,20.70
2017-05-16T21:46:51.265Z,20.70
2017-05-16T21:49:20.158Z,20.60
2017-05-16T21:51:50.789Z,20.60
2017-05-16T21:54:19.694Z,20.50
2017-05-16T21:56:49.840Z,20.50
2017-05-16T21:59:18.761Z,20.40
2017-05-16T22:01:47.681Z,20.40
2017-05-16T22:04:16.570Z,20.40
2017-05-16T22:06:45.519Z,20.40
2017-05-16T22:09:14.411Z,20.30
2017-05-16T22:11:43.295Z,20.30
2017-05-16T22:14:19.879Z,20.20
2017-05-16T22:16:56.751Z,20.20
2017-05-16T22:19:25.774Z,20.10
2017-05-16T22:21:54.677Z,20.10
2017-05-16T22:24:23.568Z,20.00
2017-05-16T22:26:52.610Z,20.00
2017-05-16T22:29:21.506Z,19.90
2017-05-16T22:31:50.399Z,19.90
2017-05-16T22:34:19.326Z,19.90
2017-05-16T22:36:48.213Z,19.80
2017-05-16T22:39:17.123Z,19.80
2017-05-16T22:41:53.548Z,19.80
2017-05-16T22:44:26.029Z,19.80
2017-05-16T22:46:56.222Z,19.80
2017-05-16T22:49:25.117Z,19.70
2017-05-16T22:51:54.762Z,19.70
2017-05-16T22:54:23.681Z,19.70
2017-05-16T22:56:57.266Z,19.60
2017-05-16T22:59:26.210Z,19.60
2017-05-16T23:01:55.848Z,19.60
2017-05-16T23:04:24.747Z,19.50
2017-05-16T23:06:57.181Z,19.50
2017-05-16T23:09:26.074Z,19.40
2017-05-16T23:11:54.972Z,19.40
2017-05-16T23:14:25.104Z,19.40
2017-05-16T23:16:54.786Z,19.30
2017-05-16T23:19:23.676Z,19.30
2017-05-16T23:21:52.568Z,19.30
2017-05-16T23:24:22.290Z,19.30
2017-05-16T23:26:51.186Z,19.20
2017-05-16T23:29:20.076Z,19.20
2017-05-16T23:31:49.016Z,19.20
2017-05-16T23:34:18.675Z,19.20
2017-05-16T23:36:47.550Z,19.20
2017-05-16T23:39:16.473Z,19.20
2017-05-16T23:41:45.382Z,19.10
2017-05-16T23:44:14.288Z,19.10
2017-05-16T23:46:43.328Z,19.10
2017-05-16T23:49:12.222Z,19.10
2017-05-16T23:51:41.116Z,19.00
2017-05-16T23:54:10.045Z,19.00
2017-05-16T23:56:38.970Z,19.00
2017-05-16T23:59:07.865Z,18.90
